sensor_id;sensor_type;location;lat;lon;timestamp;noise_LAeq;noise_LA_min;noise_LA_max;noise_LA01;noise_LA95
45109;Laerm;30447;48.742;8.972;2024-02-21T00:01:18;38.79;35.04;41.61;;
45109;Laerm;30447;48.742;8.972;2024-02-21T00:03:46;39.17;35.36;42.16;;
45109;Laerm;30447;48.742;8.972;2024-02-21T00:06:13;39.15;35.66;42.65;;
45109;Laerm;30447;48.742;8.972;2024-02-21T00:08:39;39.07;35.04;42.53;;
45109;Laerm;30447;48.742;8.972;2024-02-21T00:11:06;38.77;35.04;42.09;;
45109;Laerm;30447;48.742;8.972;2024-02-21T00:13:33;38.51;34.31;41.46;;
45109;Laerm;30447;48.742;8.972;2024-02-21T00:16:01;38.78;35.04;41.96;;
45109;Laerm;30447;48.742;8.972;2024-02-21T00:18:28;39.25;35.94;45.86;;
45109;Laerm;30447;48.742;8.972;2024-02-21T00:20:55;39.00;35.04;43.34;;
45109;Laerm;30447;48.742;8.972;2024-02-21T00:23:22;39.53;35.36;45.89;;
45109;Laerm;30447;48.742;8.972;2024-02-21T00:25:48;39.41;35.36;42.29;;
45109;Laerm;30447;48.742;8.972;2024-02-21T00:28:15;39.36;35.59;42.65;;
45109;Laerm;30447;48.742;8.972;2024-02-21T00:30:42;38.83;35.36;42.22;;
45109;Laerm;30447;48.742;8.972;2024-02-21T00:33:09;39.04;34.31;42.79;;
45109;Laerm;30447;48.742;8.972;2024-02-21T00:35:36;39.97;35.66;44.11;;
45109;Laerm;30447;48.742;8.972;2024-02-21T00:38:03;39.25;35.04;44.90;;
45109;Laerm;30447;48.742;8.972;2024-02-21T00:40:29;38.16;33.90;41.53;;
45109;Laerm;30447;48.742;8.972;2024-02-21T00:42:56;38.61;35.04;41.22;;
45109;Laerm;30447;48.742;8.972;2024-02-21T00:45:23;38.60;34.69;41.46;;
45109;Laerm;30447;48.742;8.972;2024-02-21T00:47:49;38.52;34.69;41.82;;
45109;Laerm;30447;48.742;8.972;2024-02-21T00:50:16;38.87;35.04;41.61;;
45109;Laerm;30447;48.742;8.972;2024-02-21T00:52:43;39.23;33.90;44.51;;
45109;Laerm;30447;48.742;8.972;2024-02-21T00:55:10;38.66;34.31;43.09;;
45109;Laerm;30447;48.742;8.972;2024-02-21T00:57:37;38.56;34.31;41.82;;
45109;Laerm;30447;48.742;8.972;2024-02-21T01:00:04;39.54;33.90;44.35;;
45109;Laerm;30447;48.742;8.972;2024-02-21T01:02:31;39.30;33.90;47.28;;
45109;Laerm;30447;48.742;8.972;2024-02-21T01:04:58;39.66;34.31;47.40;;
45109;Laerm;30447;48.742;8.972;2024-02-21T01:07:24;38.29;33.90;44.80;;
45109;Laerm;30447;48.742;8.972;2024-02-21T01:09:51;38.75;34.69;43.14;;
45109;Laerm;30447;48.742;8.972;2024-02-21T01:12:19;38.96;34.69;42.88;;
45109;Laerm;30447;48.742;8.972;2024-02-21T01:14:45;39.32;35.04;43.49;;
45109;Laerm;30447;48.742;8.972;2024-02-21T01:17:15;38.76;34.69;42.22;;
45109;Laerm;30447;48.742;8.972;2024-02-21T01:19:42;38.55;34.31;41.30;;
45109;Laerm;30447;48.742;8.972;2024-02-21T01:22:09;39.27;35.04;47.32;;
45109;Laerm;30447;48.742;8.972;2024-02-21T01:24:35;39.39;35.36;44.27;;
45109;Laerm;30447;48.742;8.972;2024-02-21T01:27:03;39.60;35.36;50.21;;
45109;Laerm;30447;48.742;8.972;2024-02-21T01:29:29;39.17;35.36;43.77;;
45109;Laerm;30447;48.742;8.972;2024-02-21T01:31:56;38.74;33.90;43.39;;
45109;Laerm;30447;48.742;8.972;2024-02-21T01:34:22;38.70;33.90;42.16;;
45109;Laerm;30447;48.742;8.972;2024-02-21T01:36:49;38.79;34.31;42.09;;
45109;Laerm;30447;48.742;8.972;2024-02-21T01:39:16;39.01;34.31;44.69;;
45109;Laerm;30447;48.742;8.972;2024-02-21T01:41:42;38.55;34.69;42.41;;
45109;Laerm;30447;48.742;8.972;2024-02-21T01:44:09;39.26;35.04;45.27;;
45109;Laerm;30447;48.742;8.972;2024-02-21T01:46:36;38.94;34.69;42.59;;
45109;Laerm;30447;48.742;8.972;2024-02-21T01:49:04;38.70;33.44;58.17;;
45109;Laerm;30447;48.742;8.972;2024-02-21T01:51:31;38.46;34.31;41.53;;
45109;Laerm;30447;48.742;8.972;2024-02-21T01:53:59;38.57;34.31;41.30;;
45109;Laerm;30447;48.742;8.972;2024-02-21T01:56:26;39.58;35.04;44.31;;
45109;Laerm;30447;48.742;8.972;2024-02-21T01:58:55;39.71;34.69;43.63;;
45109;Laerm;30447;48.742;8.972;2024-02-21T02:01:22;39.19;34.69;42.29;;
45109;Laerm;30447;48.742;8.972;2024-02-21T02:03:49;38.78;35.04;41.46;;
45109;Laerm;30447;48.742;8.972;2024-02-21T02:06:16;38.60;34.69;41.14;;
45109;Laerm;30447;48.742;8.972;2024-02-21T02:08:43;38.99;35.04;47.91;;
45109;Laerm;30447;48.742;8.972;2024-02-21T02:11:10;39.54;35.04;42.88;;
45109;Laerm;30447;48.742;8.972;2024-02-21T02:13:39;39.24;35.66;42.65;;
45109;Laerm;30447;48.742;8.972;2024-02-21T02:16:06;39.08;34.69;45.57;;
45109;Laerm;30447;48.742;8.972;2024-02-21T02:18:32;39.25;35.36;42.22;;
45109;Laerm;30447;48.742;8.972;2024-02-21T02:20:59;39.32;35.04;45.14;;
45109;Laerm;30447;48.742;8.972;2024-02-21T02:23:35;39.50;35.04;43.90;;
45109;Laerm;30447;48.742;8.972;2024-02-21T02:26:01;39.68;35.36;44.69;;
45109;Laerm;30447;48.742;8.972;2024-02-21T02:28:28;39.52;35.66;42.29;;
45109;Laerm;30447;48.742;8.972;2024-02-21T02:30:55;39.47;34.69;44.23;;
45109;Laerm;30447;48.742;8.972;2024-02-21T02:33:21;39.09;34.69;42.03;;
45109;Laerm;30447;48.742;8.972;2024-02-21T02:35:48;38.77;35.36;43.99;;
45109;Laerm;30447;48.742;8.972;2024-02-21T02:38:14;38.90;33.44;44.58;;
45109;Laerm;30447;48.742;8.972;2024-02-21T02:40:41;38.95;34.31;43.19;;
45109;Laerm;30447;48.742;8.972;2024-02-21T02:43:09;40.23;36.34;44.69;;
45109;Laerm;30447;48.742;8.972;2024-02-21T02:45:36;39.69;36.45;45.39;;
45109;Laerm;30447;48.742;8.972;2024-02-21T02:48:03;39.61;35.66;44.35;;
45109;Laerm;30447;48.742;8.972;2024-02-21T02:50:29;41.19;38.05;47.76;;
45109;Laerm;30447;48.742;8.972;2024-02-21T02:52:56;40.44;37.12;45.07;;
45109;Laerm;30447;48.742;8.972;2024-02-21T02:55:23;40.85;38.21;45.33;;
45109;Laerm;30447;48.742;8.972;2024-02-21T02:57:49;40.89;37.70;56.70;;
45109;Laerm;30447;48.742;8.972;2024-02-21T03:00:16;40.40;37.70;44.62;;
45109;Laerm;30447;48.742;8.972;2024-02-21T03:02:48;39.70;36.91;43.90;;
45109;Laerm;30447;48.742;8.972;2024-02-21T03:05:18;39.84;36.20;44.83;;
45109;Laerm;30447;48.742;8.972;2024-02-21T03:07:46;38.80;35.36;43.04;;
45109;Laerm;30447;48.742;8.972;2024-02-21T03:10:14;38.63;35.31;42.65;;
45109;Laerm;30447;48.742;8.972;2024-02-21T03:12:42;38.90;35.04;43.19;;
45109;Laerm;30447;48.742;8.972;2024-02-21T03:15:09;38.51;34.69;42.29;;
45109;Laerm;30447;48.742;8.972;2024-02-21T03:17:36;38.95;34.31;43.19;;
45109;Laerm;30447;48.742;8.972;2024-02-21T03:20:04;38.97;35.36;42.71;;
45109;Laerm;30447;48.742;8.972;2024-02-21T03:22:32;38.98;34.69;43.86;;
45109;Laerm;30447;48.742;8.972;2024-02-21T03:24:59;39.63;35.36;44.42;;
45109;Laerm;30447;48.742;8.972;2024-02-21T03:27:25;38.92;34.31;42.09;;
45109;Laerm;30447;48.742;8.972;2024-02-21T03:29:52;39.18;34.69;42.09;;
45109;Laerm;30447;48.742;8.972;2024-02-21T03:32:19;39.82;35.94;43.49;;
45109;Laerm;30447;48.742;8.972;2024-02-21T03:34:45;40.50;36.91;44.62;;
45109;Laerm;30447;48.742;8.972;2024-02-21T03:37:12;39.92;36.45;42.82;;
45109;Laerm;30447;48.742;8.972;2024-02-21T03:39:40;40.01;36.91;43.54;;
45109;Laerm;30447;48.742;8.972;2024-02-21T03:42:07;39.56;36.20;46.84;;
45109;Laerm;30447;48.742;8.972;2024-02-21T03:44:34;39.80;35.86;43.63;;
45109;Laerm;30447;48.742;8.972;2024-02-21T03:47:00;40.46;35.36;43.77;;
45109;Laerm;30447;48.742;8.972;2024-02-21T03:49:27;40.18;36.45;46.97;;
45109;Laerm;30447;48.742;8.972;2024-02-21T03:51:53;39.39;35.94;44.43;;
45109;Laerm;30447;48.742;8.972;2024-02-21T03:54:20;39.61;36.20;42.59;;
45109;Laerm;30447;48.742;8.972;2024-02-21T03:56:47;39.39;35.94;41.96;;
45109;Laerm;30447;48.742;8.972;2024-02-21T03:59:16;40.31;36.45;63.07;;
45109;Laerm;30447;48.742;8.972;2024-02-21T04:01:43;40.08;36.45;46.76;;
45109;Laerm;30447;48.742;8.972;2024-02-21T04:04:10;39.57;36.45;42.53;;
45109;Laerm;30447;48.742;8.972;2024-02-21T04:06:46;39.44;35.66;41.96;;
45109;Laerm;30447;48.742;8.972;2024-02-21T04:09:12;39.50;35.94;42.22;;
45109;Laerm;30447;48.742;8.972;2024-02-21T04:11:39;39.85;36.69;44.43;;
45109;Laerm;30447;48.742;8.972;2024-02-21T04:14:05;40.06;36.69;46.33;;
45109;Laerm;30447;48.742;8.972;2024-02-21T04:16:32;39.99;37.12;42.65;;
45109;Laerm;30447;48.742;8.972;2024-02-21T04:18:58;39.85;36.45;42.88;;
45109;Laerm;30447;48.742;8.972;2024-02-21T04:21:25;40.18;36.69;42.59;;
45109;Laerm;30447;48.742;8.972;2024-02-21T04:23:52;40.20;36.91;42.76;;
45109;Laerm;30447;48.742;8.972;2024-02-21T04:26:18;39.69;36.45;42.65;;
45109;Laerm;30447;48.742;8.972;2024-02-21T04:28:45;40.50;36.45;44.62;;
45109;Laerm;30447;48.742;8.972;2024-02-21T04:31:12;39.94;36.69;43.72;;
45109;Laerm;30447;48.742;8.972;2024-02-21T04:33:39;39.69;35.94;43.29;;
45109;Laerm;30447;48.742;8.972;2024-02-21T04:36:05;39.95;36.20;42.59;;
45109;Laerm;30447;48.742;8.972;2024-02-21T04:38:32;40.47;37.32;44.39;;
45109;Laerm;30447;48.742;8.972;2024-02-21T04:40:58;40.70;37.52;44.39;;
45109;Laerm;30447;48.742;8.972;2024-02-21T04:43:25;40.60;37.32;44.19;;
45109;Laerm;30447;48.742;8.972;2024-02-21T04:45:52;41.48;38.52;45.04;;
45109;Laerm;30447;48.742;8.972;2024-02-21T04:48:19;42.04;39.58;45.01;;
45109;Laerm;30447;48.742;8.972;2024-02-21T04:50:47;42.09;38.95;45.80;;
45109;Laerm;30447;48.742;8.972;2024-02-21T04:53:13;40.95;37.88;44.11;;
45109;Laerm;30447;48.742;8.972;2024-02-21T04:55:40;40.96;38.37;43.99;;
45109;Laerm;30447;48.742;8.972;2024-02-21T04:58:07;41.70;38.67;46.52;;
45109;Laerm;30447;48.742;8.972;2024-02-21T05:00:34;41.56;39.21;44.47;;
45109;Laerm;30447;48.742;8.972;2024-02-21T05:03:01;41.76;38.95;45.69;;
45109;Laerm;30447;48.742;8.972;2024-02-21T05:05:27;41.68;39.08;44.80;;
45109;Laerm;30447;48.742;8.972;2024-02-21T05:07:54;41.69;38.52;52.28;;
45109;Laerm;30447;48.742;8.972;2024-02-21T05:10:20;41.68;39.21;45.07;;
45109;Laerm;30447;48.742;8.972;2024-02-21T05:12:47;42.01;39.46;44.51;;
45109;Laerm;30447;48.742;8.972;2024-02-21T05:15:14;42.63;39.70;49.46;;
45109;Laerm;30447;48.742;8.972;2024-02-21T05:17:40;43.03;39.21;50.85;;
45109;Laerm;30447;48.742;8.972;2024-02-21T05:20:07;43.31;39.34;65.59;;
45109;Laerm;30447;48.742;8.972;2024-02-21T05:22:34;42.80;39.70;56.73;;
45109;Laerm;30447;48.742;8.972;2024-02-21T05:25:01;42.46;39.81;44.83;;
45109;Laerm;30447;48.742;8.972;2024-02-21T05:27:27;42.13;39.81;47.44;;
45109;Laerm;30447;48.742;8.972;2024-02-21T05:29:54;42.54;39.92;50.63;;
45109;Laerm;30447;48.742;8.972;2024-02-21T05:32:20;42.78;40.03;46.66;;
45109;Laerm;30447;48.742;8.972;2024-02-21T05:34:50;43.09;40.03;47.77;;
45109;Laerm;30447;48.742;8.972;2024-02-21T05:37:17;43.34;40.89;52.24;;
45109;Laerm;30447;48.742;8.972;2024-02-21T05:39:44;43.99;41.53;48.49;;
45109;Laerm;30447;48.742;8.972;2024-02-21T05:42:10;43.60;41.19;47.98;;
45109;Laerm;30447;48.742;8.972;2024-02-21T05:44:37;44.11;41.38;50.15;;
45109;Laerm;30447;48.742;8.972;2024-02-21T05:47:04;43.50;40.88;48.55;;
45109;Laerm;30447;48.742;8.972;2024-02-21T05:49:30;44.24;40.71;58.06;;
45109;Laerm;30447;48.742;8.972;2024-02-21T05:51:57;44.34;41.14;58.05;;
45109;Laerm;30447;48.742;8.972;2024-02-21T05:54:23;44.79;41.53;59.95;;
45109;Laerm;30447;48.742;8.972;2024-02-21T05:56:50;44.40;41.46;57.10;;
45109;Laerm;30447;48.742;8.972;2024-02-21T05:59:17;43.81;40.71;60.04;;
45109;Laerm;30447;48.742;8.972;2024-02-21T06:01:43;43.50;40.98;48.99;;
45109;Laerm;30447;48.742;8.972;2024-02-21T06:04:10;43.46;40.89;51.01;;
45109;Laerm;30447;48.742;8.972;2024-02-21T06:06:37;45.99;40.23;59.67;;
45109;Laerm;30447;48.742;8.972;2024-02-21T06:09:03;46.63;40.03;61.98;;
45109;Laerm;30447;48.742;8.972;2024-02-21T06:11:30;43.17;40.96;48.74;;
45109;Laerm;30447;48.742;8.972;2024-02-21T06:13:57;43.52;41.06;48.69;;
45109;Laerm;30447;48.742;8.972;2024-02-21T06:16:23;44.20;41.22;53.06;;
45109;Laerm;30447;48.742;8.972;2024-02-21T06:18:50;43.85;40.62;50.08;;
45109;Laerm;30447;48.742;8.972;2024-02-21T06:21:16;43.72;41.22;52.60;;
45109;Laerm;30447;48.742;8.972;2024-02-21T06:23:43;44.16;41.38;52.66;;
45109;Laerm;30447;48.742;8.972;2024-02-21T06:26:10;45.25;42.00;53.20;;
45109;Laerm;30447;48.742;8.972;2024-02-21T06:28:36;46.02;42.59;52.83;;
45109;Laerm;30447;48.742;8.972;2024-02-21T06:31:03;46.35;42.22;54.70;;
45109;Laerm;30447;48.742;8.972;2024-02-21T06:33:29;45.12;42.09;52.06;;
45109;Laerm;30447;48.742;8.972;2024-02-21T06:35:56;45.32;41.75;54.52;;
45109;Laerm;30447;48.742;8.972;2024-02-21T06:38:23;47.69;42.76;59.99;;
45109;Laerm;30447;48.742;8.972;2024-02-21T06:40:49;47.41;41.82;61.36;;
45109;Laerm;30447;48.742;8.972;2024-02-21T06:43:21;44.99;41.75;53.92;;
45109;Laerm;30447;48.742;8.972;2024-02-21T06:45:47;46.53;41.53;55.19;;
45109;Laerm;30447;48.742;8.972;2024-02-21T06:48:18;44.58;41.75;58.44;;
45109;Laerm;30447;48.742;8.972;2024-02-21T06:50:45;44.51;41.22;58.06;;
45109;Laerm;30447;48.742;8.972;2024-02-21T06:53:12;43.43;41.38;47.90;;
45109;Laerm;30447;48.742;8.972;2024-02-21T06:55:39;48.28;41.38;62.49;;
45109;Laerm;30447;48.742;8.972;2024-02-21T06:58:06;45.23;41.82;66.86;;
45109;Laerm;30447;48.742;8.972;2024-02-21T07:00:34;44.46;42.09;59.93;;
45109;Laerm;30447;48.742;8.972;2024-02-21T07:03:01;44.50;41.61;51.91;;
45109;Laerm;30447;48.742;8.972;2024-02-21T07:05:29;44.23;41.46;53.68;;
45109;Laerm;30447;48.742;8.972;2024-02-21T07:07:55;45.19;42.09;53.77;;
45109;Laerm;30447;48.742;8.972;2024-02-21T07:10:22;45.73;42.47;57.57;;
45109;Laerm;30447;48.742;8.972;2024-02-21T07:12:48;45.45;41.75;69.10;;
45109;Laerm;30447;48.742;8.972;2024-02-21T07:15:15;44.18;41.96;48.76;;
45109;Laerm;30447;48.742;8.972;2024-02-21T07:17:42;44.34;41.38;49.88;;
45109;Laerm;30447;48.742;8.972;2024-02-21T07:20:09;44.36;41.68;53.23;;
45109;Laerm;30447;48.742;8.972;2024-02-21T07:22:35;44.84;40.80;59.17;;
45109;Laerm;30447;48.742;8.972;2024-02-21T07:25:02;43.73;40.62;50.46;;
45109;Laerm;30447;48.742;8.972;2024-02-21T07:27:29;44.24;41.22;51.35;;
45109;Laerm;30447;48.742;8.972;2024-02-21T07:29:57;43.71;41.30;48.26;;
45109;Laerm;30447;48.742;8.972;2024-02-21T07:32:24;43.25;40.33;54.00;;
45109;Laerm;30447;48.742;8.972;2024-02-21T07:34:50;43.50;40.89;59.08;;
45109;Laerm;30447;48.742;8.972;2024-02-21T07:37:17;43.33;40.53;53.90;;
45109;Laerm;30447;48.742;8.972;2024-02-21T07:39:44;43.43;40.62;47.84;;
45109;Laerm;30447;48.742;8.972;2024-02-21T07:42:10;48.55;41.53;66.25;;
45109;Laerm;30447;48.742;8.972;2024-02-21T07:44:37;45.56;40.62;55.04;;
45109;Laerm;30447;48.742;8.972;2024-02-21T07:47:03;45.17;40.80;53.59;;
45109;Laerm;30447;48.742;8.972;2024-02-21T07:49:30;44.33;40.62;55.49;;
45109;Laerm;30447;48.742;8.972;2024-02-21T07:51:57;43.90;40.62;52.23;;
45109;Laerm;30447;48.742;8.972;2024-02-21T07:54:24;43.32;39.70;52.31;;
45109;Laerm;30447;48.742;8.972;2024-02-21T07:56:50;42.39;39.89;52.79;;
45109;Laerm;30447;48.742;8.972;2024-02-21T07:59:17;42.81;40.03;48.66;;
45109;Laerm;30447;48.742;8.972;2024-02-21T08:01:44;42.35;39.70;47.04;;
45109;Laerm;30447;48.742;8.972;2024-02-21T08:04:11;43.02;39.81;49.52;;
45109;Laerm;30447;48.742;8.972;2024-02-21T08:06:37;44.19;40.03;57.01;;
45109;Laerm;30447;48.742;8.972;2024-02-21T08:09:04;43.04;38.95;58.12;;
45109;Laerm;30447;48.742;8.972;2024-02-21T08:11:30;41.34;37.88;47.88;;
45109;Laerm;30447;48.742;8.972;2024-02-21T08:13:57;42.06;38.37;48.90;;
45109;Laerm;30447;48.742;8.972;2024-02-21T08:16:24;42.05;37.88;60.81;;
45109;Laerm;30447;48.742;8.972;2024-02-21T08:18:51;45.16;39.46;57.22;;
45109;Laerm;30447;48.742;8.972;2024-02-21T08:21:17;42.25;38.95;53.89;;
45109;Laerm;30447;48.742;8.972;2024-02-21T08:23:44;42.32;38.67;53.21;;
45109;Laerm;30447;48.742;8.972;2024-02-21T08:26:11;42.47;38.60;56.88;;
45109;Laerm;30447;48.742;8.972;2024-02-21T08:28:38;42.07;39.08;58.87;;
45109;Laerm;30447;48.742;8.972;2024-02-21T08:31:04;41.67;38.52;55.97;;
45109;Laerm;30447;48.742;8.972;2024-02-21T08:33:31;41.99;38.21;51.19;;
45109;Laerm;30447;48.742;8.972;2024-02-21T08:35:57;41.49;38.21;53.82;;
45109;Laerm;30447;48.742;8.972;2024-02-21T08:38:24;41.46;38.21;57.08;;
45109;Laerm;30447;48.742;8.972;2024-02-21T08:40:51;40.95;37.70;50.31;;
45109;Laerm;30447;48.742;8.972;2024-02-21T08:43:18;41.44;38.37;52.47;;
45109;Laerm;30447;48.742;8.972;2024-02-21T08:45:44;41.37;37.52;54.17;;
45109;Laerm;30447;48.742;8.972;2024-02-21T08:48:11;41.50;38.37;46.28;;
45109;Laerm;30447;48.742;8.972;2024-02-21T08:50:37;41.45;37.88;44.76;;
45109;Laerm;30447;48.742;8.972;2024-02-21T08:53:04;41.59;39.08;44.23;;
45109;Laerm;30447;48.742;8.972;2024-02-21T08:55:31;41.41;38.05;46.10;;
45109;Laerm;30447;48.742;8.972;2024-02-21T08:57:58;41.04;37.87;44.47;;
45109;Laerm;30447;48.742;8.972;2024-02-21T09:00:24;41.87;38.67;50.48;;
45109;Laerm;30447;48.742;8.972;2024-02-21T09:02:53;42.03;37.52;47.12;;
45109;Laerm;30447;48.742;8.972;2024-02-21T09:05:22;51.33;38.99;59.68;;
45109;Laerm;30447;48.742;8.972;2024-02-21T09:07:48;64.64;45.57;78.53;;
45109;Laerm;30447;48.742;8.972;2024-02-21T09:10:15;47.45;39.08;65.85;;
45109;Laerm;30447;48.742;8.972;2024-02-21T09:12:42;48.64;37.70;71.01;;
45109;Laerm;30447;48.742;8.972;2024-02-21T09:15:09;41.42;38.05;52.19;;
45109;Laerm;30447;48.742;8.972;2024-02-21T09:17:36;41.22;38.21;49.74;;
45109;Laerm;30447;48.742;8.972;2024-02-21T09:20:03;41.46;36.91;50.92;;
45109;Laerm;30447;48.742;8.972;2024-02-21T09:22:30;46.62;38.21;60.86;;
45109;Laerm;30447;48.742;8.972;2024-02-21T09:25:01;42.32;37.32;52.74;;
45109;Laerm;30447;48.742;8.972;2024-02-21T09:27:27;40.81;36.91;56.13;;
45109;Laerm;30447;48.742;8.972;2024-02-21T09:29:54;40.64;36.91;57.09;;
45109;Laerm;30447;48.742;8.972;2024-02-21T09:32:20;42.96;37.12;56.59;;
45109;Laerm;30447;48.742;8.972;2024-02-21T09:34:47;40.73;36.91;50.85;;
45109;Laerm;30447;48.742;8.972;2024-02-21T09:37:14;42.33;38.05;56.42;;
45109;Laerm;30447;48.742;8.972;2024-02-21T09:39:41;45.32;37.12;71.15;;
45109;Laerm;30447;48.742;8.972;2024-02-21T09:42:11;46.29;36.20;67.31;;
45109;Laerm;30447;48.742;8.972;2024-02-21T09:44:38;40.81;36.45;52.60;;
45109;Laerm;30447;48.742;8.972;2024-02-21T09:47:14;40.63;36.45;54.21;;
45109;Laerm;30447;48.742;8.972;2024-02-21T09:49:45;40.26;36.69;45.33;;
45109;Laerm;30447;48.742;8.972;2024-02-21T09:52:15;40.44;35.94;53.75;;
45109;Laerm;30447;48.742;8.972;2024-02-21T09:54:42;40.19;36.20;45.80;;
45109;Laerm;30447;48.742;8.972;2024-02-21T09:57:11;40.51;37.12;57.78;;
45109;Laerm;30447;48.742;8.972;2024-02-21T09:59:39;40.43;36.69;49.87;;
45109;Laerm;30447;48.742;8.972;2024-02-21T10:02:08;40.69;36.91;50.77;;
45109;Laerm;30447;48.742;8.972;2024-02-21T10:04:34;40.74;36.91;51.50;;
45109;Laerm;30447;48.742;8.972;2024-02-21T10:07:01;40.19;36.45;50.95;;
45109;Laerm;30447;48.742;8.972;2024-02-21T10:09:28;40.73;37.52;52.42;;
45109;Laerm;30447;48.742;8.972;2024-02-21T10:12:07;40.50;35.94;46.48;;
45109;Laerm;30447;48.742;8.972;2024-02-21T10:14:34;40.55;36.45;52.15;;
45109;Laerm;30447;48.742;8.972;2024-02-21T10:17:00;42.52;35.94;55.14;;
45109;Laerm;30447;48.742;8.972;2024-02-21T10:19:28;39.86;35.36;51.44;;
45109;Laerm;30447;48.742;8.972;2024-02-21T10:22:03;39.73;36.45;45.75;;
45109;Laerm;30447;48.742;8.972;2024-02-21T10:24:31;39.61;35.66;44.47;;
45109;Laerm;30447;48.742;8.972;2024-02-21T10:27:06;40.26;36.45;50.62;;
45109;Laerm;30447;48.742;8.972;2024-02-21T10:29:35;40.84;35.66;47.46;;
45109;Laerm;30447;48.742;8.972;2024-02-21T10:32:06;39.82;36.45;48.45;;
45109;Laerm;30447;48.742;8.972;2024-02-21T10:34:37;39.83;35.04;45.39;;
45109;Laerm;30447;48.742;8.972;2024-02-21T10:37:09;40.34;36.20;54.35;;
45109;Laerm;30447;48.742;8.972;2024-02-21T10:39:39;40.16;36.45;51.28;;
45109;Laerm;30447;48.742;8.972;2024-02-21T10:42:07;40.30;35.94;54.52;;
45109;Laerm;30447;48.742;8.972;2024-02-21T10:44:38;40.46;36.20;61.54;;
45109;Laerm;30447;48.742;8.972;2024-02-21T10:47:10;40.39;36.20;50.50;;
45109;Laerm;30447;48.742;8.972;2024-02-21T10:49:40;40.24;35.36;47.55;;
45109;Laerm;30447;48.742;8.972;2024-02-21T10:55:16;40.05;35.94;47.46;;
45109;Laerm;30447;48.742;8.972;2024-02-21T10:57:47;40.68;35.94;52.21;;
45109;Laerm;30447;48.742;8.972;2024-02-21T11:00:18;40.62;35.94;50.64;;
45109;Laerm;30447;48.742;8.972;2024-02-21T11:02:47;42.36;38.18;51.14;;
45109;Laerm;30447;48.742;8.972;2024-02-21T11:05:15;41.49;37.12;51.70;;
45109;Laerm;30447;48.742;8.972;2024-02-21T11:07:43;40.67;36.45;55.06;;
45109;Laerm;30447;48.742;8.972;2024-02-21T11:10:26;41.41;37.32;52.23;;
45109;Laerm;30447;48.742;8.972;2024-02-21T11:13:13;40.59;36.20;47.86;;
45109;Laerm;30447;48.742;8.972;2024-02-21T11:15:40;41.82;37.70;49.43;;
45109;Laerm;30447;48.742;8.972;2024-02-21T11:18:07;43.15;37.88;69.49;;
45109;Laerm;30447;48.742;8.972;2024-02-21T11:20:35;44.32;35.94;68.98;;
45109;Laerm;30447;48.742;8.972;2024-02-21T11:23:02;41.72;38.21;49.81;;
45109;Laerm;30447;48.742;8.972;2024-02-21T11:25:29;40.97;35.66;52.65;;
45109;Laerm;30447;48.742;8.972;2024-02-21T11:28:04;39.74;34.69;47.84;;
45109;Laerm;30447;48.742;8.972;2024-02-21T11:30:36;39.82;35.36;47.06;;
45109;Laerm;30447;48.742;8.972;2024-02-21T11:33:06;40.23;36.20;47.32;;
45109;Laerm;30447;48.742;8.972;2024-02-21T11:35:35;40.14;31.68;56.06;;
45109;Laerm;30447;48.742;8.972;2024-02-21T11:38:13;39.48;35.66;45.86;;
45109;Laerm;30447;48.742;8.972;2024-02-21T11:40:46;39.65;35.04;50.58;;
45109;Laerm;30447;48.742;8.972;2024-02-21T11:43:13;42.67;35.66;57.55;;
45109;Laerm;30447;48.742;8.972;2024-02-21T11:45:39;70.13;38.81;96.51;;
45109;Laerm;30447;48.742;8.972;2024-02-21T11:48:07;42.18;35.94;57.62;;
45109;Laerm;30447;48.742;8.972;2024-02-21T11:50:35;46.94;37.12;60.16;;
45109;Laerm;30447;48.742;8.972;2024-02-21T11:53:06;40.92;36.20;51.17;;
45109;Laerm;30447;48.742;8.972;2024-02-21T11:55:32;40.56;35.36;51.38;;
45109;Laerm;30447;48.742;8.972;2024-02-21T11:58:00;42.26;35.36;53.47;;
45109;Laerm;30447;48.742;8.972;2024-02-21T12:00:27;39.82;35.04;52.09;;
45109;Laerm;30447;48.742;8.972;2024-02-21T12:02:54;39.83;35.66;46.30;;
45109;Laerm;30447;48.742;8.972;2024-02-21T12:05:22;39.92;35.04;48.88;;
45109;Laerm;30447;48.742;8.972;2024-02-21T12:07:49;40.27;36.20;52.24;;
45109;Laerm;30447;48.742;8.972;2024-02-21T12:10:15;40.30;35.36;49.71;;
45109;Laerm;30447;48.742;8.972;2024-02-21T12:12:42;40.01;36.20;46.13;;
45109;Laerm;30447;48.742;8.972;2024-02-21T12:15:08;40.06;36.20;54.38;;
45109;Laerm;30447;48.742;8.972;2024-02-21T12:17:36;48.05;36.20;62.43;;
45109;Laerm;30447;48.742;8.972;2024-02-21T12:20:04;41.12;34.69;51.98;;
45109;Laerm;30447;48.742;8.972;2024-02-21T12:22:38;44.01;35.86;56.01;;
45109;Laerm;30447;48.742;8.972;2024-02-21T12:25:16;63.90;38.95;88.57;;
45109;Laerm;30447;48.742;8.972;2024-02-21T12:27:46;42.61;36.20;58.35;;
45109;Laerm;30447;48.742;8.972;2024-02-21T12:30:13;41.47;36.45;52.70;;
45109;Laerm;30447;48.742;8.972;2024-02-21T12:32:40;40.10;35.94;49.97;;
45109;Laerm;30447;48.742;8.972;2024-02-21T12:35:07;42.01;35.66;58.28;;
45109;Laerm;30447;48.742;8.972;2024-02-21T12:37:34;40.27;35.66;61.55;;
45109;Laerm;30447;48.742;8.972;2024-02-21T12:40:01;40.50;33.90;55.38;;
45109;Laerm;30447;48.742;8.972;2024-02-21T12:42:34;39.09;35.36;49.70;;
45109;Laerm;30447;48.742;8.972;2024-02-21T12:45:03;39.56;35.04;55.22;;
45109;Laerm;30447;48.742;8.972;2024-02-21T12:47:29;42.18;35.66;60.59;;
45109;Laerm;30447;48.742;8.972;2024-02-21T12:49:56;40.19;35.66;47.20;;
45109;Laerm;30447;48.742;8.972;2024-02-21T12:52:23;40.23;35.36;46.33;;
45109;Laerm;30447;48.742;8.972;2024-02-21T12:54:50;39.13;33.90;44.98;;
45109;Laerm;30447;48.742;8.972;2024-02-21T12:57:18;39.37;35.04;47.48;;
45109;Laerm;30447;48.742;8.972;2024-02-21T12:59:44;40.17;35.86;52.05;;
45109;Laerm;30447;48.742;8.972;2024-02-21T13:02:11;40.31;34.31;53.12;;
45109;Laerm;30447;48.742;8.972;2024-02-21T13:04:38;39.06;34.31;48.26;;
45109;Laerm;30447;48.742;8.972;2024-02-21T13:07:07;39.43;34.69;50.19;;
45109;Laerm;30447;48.742;8.972;2024-02-21T13:09:34;39.68;35.36;47.40;;
45109;Laerm;30447;48.742;8.972;2024-02-21T13:12:00;39.66;34.69;48.42;;
45109;Laerm;30447;48.742;8.972;2024-02-21T13:14:28;39.18;35.36;43.49;;
45109;Laerm;30447;48.742;8.972;2024-02-21T13:16:55;39.39;35.04;48.74;;
45109;Laerm;30447;48.742;8.972;2024-02-21T13:19:22;39.76;35.04;49.65;;
45109;Laerm;30447;48.742;8.972;2024-02-21T13:21:48;40.19;36.20;52.33;;
45109;Laerm;30447;48.742;8.972;2024-02-21T13:24:15;39.65;35.04;49.24;;
45109;Laerm;30447;48.742;8.972;2024-02-21T13:26:41;39.22;35.04;47.12;;
45109;Laerm;30447;48.742;8.972;2024-02-21T13:29:08;39.34;35.66;46.69;;
45109;Laerm;30447;48.742;8.972;2024-02-21T13:31:35;39.72;35.66;43.86;;
45109;Laerm;30447;48.742;8.972;2024-02-21T13:34:02;40.40;35.94;48.45;;
45109;Laerm;30447;48.742;8.972;2024-02-21T13:36:29;39.61;35.36;53.60;;
45109;Laerm;30447;48.742;8.972;2024-02-21T13:38:56;39.59;35.94;44.87;;
45109;Laerm;30447;48.742;8.972;2024-02-21T13:41:22;40.28;35.66;51.44;;
45109;Laerm;30447;48.742;8.972;2024-02-21T13:43:49;39.14;34.69;42.41;;
45109;Laerm;30447;48.742;8.972;2024-02-21T13:46:16;39.67;34.69;44.73;;
45109;Laerm;30447;48.742;8.972;2024-02-21T13:48:43;39.87;35.66;48.45;;